Time;durP1;ratioP1;P1;durP2;ratioP2;P2;SDS_P1;SDS_P2;PMS_P1;PMS_P2;Temp;Humidity;BMP_temperature;BMP_pressure;BME280_temperature;BME280_humidity;BME280_pressure;Samples;Min_cycle;Max_cycle;Signal;HPM_P1;HPM_P2
2023/06/25 00:00:27;;;;;;;;;;;;;;;;;;4991322;28;8591;-84
2023/06/25 00:02:52;;;;;;;;;;;;;;;;;;4992156;28;8713;-84
2023/06/25 00:05:17;;;;;;;;;;;;;;;;;;4998232;28;8818;-84
2023/06/25 00:07:43;;;;;;;;;;;;;;;;;;4987065;28;7145;-85
2023/06/25 00:10:09;;;;;;;;;;;;;;;;;;4986320;28;8741;-84
2023/06/25 00:12:34;;;;;;;;;;;;;;;;;;4993087;28;8606;-85
2023/06/25 00:15:00;;;;;;;;;;;;;;;;;;4987958;28;6958;-84
2023/06/25 00:17:27;;;;;;;;;;;;;;;;;;5000088;28;8840;-84
2023/06/25 00:19:57;;;;;;;;;;;;;;;;;;4985694;28;7160;-85
2023/06/25 00:22:23;;;;;;;;;;;;;;;;;;4972246;28;8838;-84
2023/06/25 00:24:48;;;;;;;;;;;;;;;;;;4988998;28;8742;-84
2023/06/25 00:27:14;;;;;;;;;;;;;;;;;;4988858;28;8693;-84
2023/06/25 00:29:39;;;;;;;;;;;;;;;;;;4986132;28;8507;-85
2023/06/25 00:32:05;;;;;;;;;;;;;;;;;;4974473;28;8840;-85
2023/06/25 00:34:31;;;;;;;;;;;;;;;;;;4979509;28;8858;-85
2023/06/25 00:36:56;;;;;;;;;;;;;;;;;;4999039;28;8579;-84
2023/06/25 00:39:22;;;;;;;;;;;;;;;;;;4991484;28;9385;-82
2023/06/25 00:41:48;;;;;;;;;;;;;;;;;;4973696;28;8470;-79
2023/06/25 00:44:13;;;;;;;;;;;;;;;;;;4972327;28;8518;-84
2023/06/25 00:46:39;;;;;;;;;;;;;;;;;;4972485;28;8466;-82
2023/06/25 00:49:08;;;;;;;;;;;;;;;;;;4972711;28;8640;-83
2023/06/25 00:51:35;;;;;;;;;;;;;;;;;;4972466;28;8653;-84
2023/06/25 00:54:05;;;;;;;;;;;;;;;;;;4972302;28;8743;-83
2023/06/25 00:56:32;;;;;;;;;;;;;;;;;;4972716;28;9279;-83
2023/06/25 00:59:00;;;;;;;;;;;;;;;;;;4972639;28;8558;-84
2023/06/25 01:01:32;;;;;;;;;;;;;;;;;;4972733;28;7213;-84
2023/06/25 01:04:05;;;;;;;;;;;;;;;;;;4972666;28;7106;-84
2023/06/25 01:06:36;;;;;;;;;;;;;;;;;;4972587;28;8604;-84
2023/06/25 01:09:02;;;;;;;;;;;;;;;;;;4972196;28;7261;-84
2023/06/25 01:11:28;;;;;;;;;;;;;;;;;;4972782;28;8918;-83
2023/06/25 01:13:54;;;;;;;;;;;;;;;;;;4972345;28;8589;-83
2023/06/25 01:16:20;;;;;;;;;;;;;;;;;;4972887;28;7078;-83
2023/06/25 01:18:48;;;;;;;;;;;;;;;;;;4972391;28;8901;-84
2023/06/25 01:21:17;;;;;;;;;;;;;;;;;;4972395;28;8965;-85
2023/06/25 01:23:43;;;;;;;;;;;;;;;;;;4972460;28;9523;-84
2023/06/25 01:26:09;;;;;;;;;;;;;;;;;;4974200;28;8553;-84
2023/06/25 01:28:34;;;;;;;;;;;;;;;;;;4975820;28;8699;-83
2023/06/25 01:31:00;;;;;;;;;;;;;;;;;;4975812;28;8768;-84
2023/06/25 01:33:26;;;;;;;;;;;;;;;;;;4976069;28;8501;-84
2023/06/25 01:35:53;;;;;;;;;;;;;;;;;;4975988;28;8928;-83
2023/06/25 01:38:18;;;;;;;;;;;;;;;;;;4976342;28;8914;-84
2023/06/25 01:40:44;;;;;;;;;;;;;;;;;;4976325;28;8740;-83
2023/06/25 01:43:10;;;;;;;;;;;;;;;;;;4975610;28;7169;-85
2023/06/25 01:45:35;;;;;;;;;;;;;;;;;;4975697;28;8451;-83
2023/06/25 01:48:01;;;;;;;;;;;;;;;;;;4975703;28;8825;-84
2023/06/25 01:50:26;;;;;;;;;;;;;;;;;;4982994;28;8602;-85
2023/06/25 01:52:52;;;;;;;;;;;;;;;;;;4994355;28;8625;-84
2023/06/25 01:55:18;;;;;;;;;;;;;;;;;;4992829;28;8644;-82
2023/06/25 01:57:44;;;;;;;;;;;;;;;;;;4994389;28;7208;-83
2023/06/25 02:00:11;;;;;;;;;;;;;;;;;;4994341;28;8521;-83
2023/06/25 02:02:37;;;;;;;;;;;;;;;;;;5167912;23;8932;-87
2023/06/25 02:05:03;;;;;;;;;;;;;;;;;;4971778;28;7328;-86
2023/06/25 02:07:28;;;;;;;;;;;;;;;;;;4971768;28;8934;-86
2023/06/25 02:09:54;;;;;;;;;;;;;;;;;;4971832;28;9190;-87
2023/06/25 02:12:20;;;;;;;;;;;;;;;;;;4971956;28;8648;-86
2023/06/25 02:14:46;;;;;;;;;;;;;;;;;;4972060;28;8655;-87
2023/06/25 02:17:11;;;;;;;;;;;;;;;;;;4972125;28;8506;-86
2023/06/25 02:19:37;;;;;;;;;;;;;;;;;;4971833;28;8684;-84
2023/06/25 02:22:03;;;;;;;;;;;;;;;;;;4971791;28;8861;-86
2023/06/25 02:24:29;;;;;;;;;;;;;;;;;;4971631;28;8890;-85
2023/06/25 02:26:55;;;;;;;;;;;;;;;;;;4971860;28;9069;-84
2023/06/25 02:29:21;;;;;;;;;;;;;;;;;;4971840;28;8506;-84
2023/06/25 02:31:46;;;;;;;;;;;;;;;;;;4971478;28;8832;-84
2023/06/25 02:34:12;;;;;;;;;;;;;;;;;;4971632;28;8866;-84
2023/06/25 02:36:38;;;;;;;;;;;;;;;;;;4971151;28;8476;-84
2023/06/25 02:39:04;;;;;;;;;;;;;;;;;;4971401;28;8481;-84
2023/06/25 02:41:30;;;;;;;;;;;;;;;;;;4971682;28;8608;-84
2023/06/25 02:43:55;;;;;;;;;;;;;;;;;;4971455;28;8521;-84
2023/06/25 02:46:21;;;;;;;;;;;;;;;;;;4971126;28;8765;-85
2023/06/25 02:48:47;;;;;;;;;;;;;;;;;;4971190;28;9571;-86
2023/06/25 02:51:12;;;;;;;;;;;;;;;;;;4971190;28;8546;-85
2023/06/25 02:53:38;;;;;;;;;;;;;;;;;;4971370;28;8720;-85
2023/06/25 02:56:04;;;;;;;;;;;;;;;;;;4971070;28;9194;-86
2023/06/25 02:58:29;;;;;;;;;;;;;;;;;;4971390;28;9425;-85
2023/06/25 03:00:56;;;;;;;;;;;;;;;;;;4971125;28;8486;-85
2023/06/25 03:03:21;;;;;;;;;;;;;;;;;;4971180;28;8516;-85
2023/06/25 03:05:47;;;;;;;;;;;;;;;;;;4971064;28;8681;-87
2023/06/25 03:08:12;;;;;;;;;;;;;;;;;;4970935;28;8887;-85
2023/06/25 03:10:38;;;;;;;;;;;;;;;;;;4971151;28;8791;-85
2023/06/25 03:13:04;;;;;;;;;;;;;;;;;;4970720;28;8544;-85
2023/06/25 03:15:31;;;;;;;;;;;;;;;;;;4970875;28;8530;-84
2023/06/25 03:17:56;;;;;;;;;;;;;;;;;;4970626;28;8834;-85
2023/06/25 03:20:22;;;;;;;;;;;;;;;;;;4970884;28;8520;-85
2023/06/25 03:22:48;;;;;;;;;;;;;;;;;;4970598;28;8459;-87
2023/06/25 03:25:15;;;;;;;;;;;;;;;;;;4970683;28;8512;-86
2023/06/25 03:27:41;;;;;;;;;;;;;;;;;;4970502;28;8508;-87
2023/06/25 03:30:07;;;;;;;;;;;;;;;;;;4970695;28;7231;-87
2023/06/25 03:32:33;;;;;;;;;;;;;;;;;;4970553;28;8816;-88
2023/06/25 03:34:59;;;;;;;;;;;;;;;;;;4970388;28;8811;-88
2023/06/25 03:37:25;;;;;;;;;;;;;;;;;;4970821;28;8504;-87
2023/06/25 03:39:50;;;;;;;;;;;;;;;;;;4970306;28;8703;-87
2023/06/25 03:42:16;;;;;;;;;;;;;;;;;;4970255;28;7230;-86
2023/06/25 03:44:47;;;;;;;;;;;;;;;;;;4970420;28;8446;-88
2023/06/25 03:47:13;;;;;;;;;;;;;;;;;;4970375;28;8854;-86
2023/06/25 03:49:38;;;;;;;;;;;;;;;;;;4969235;28;8708;-86
2023/06/25 03:52:04;;;;;;;;;;;;;;;;;;4970261;28;8716;-86
2023/06/25 03:54:30;;;;;;;;;;;;;;;;;;4970276;28;8432;-85
2023/06/25 03:56:56;;;;;;;;;;;;;;;;;;4970171;28;8522;-86
2023/06/25 03:59:21;;;;;;;;;;;;;;;;;;4970022;28;8568;-85
2023/06/25 04:01:47;;;;;;;;;;;;;;;;;;4971108;28;8442;-84
2023/06/25 04:04:12;;;;;;;;;;;;;;;;;;4959756;28;8508;-84
2023/06/25 04:06:38;;;;;;;;;;;;;;;;;;4943220;28;7157;-86
2023/06/25 04:09:04;;;;;;;;;;;;;;;;;;4928116;29;7119;-86
2023/06/25 04:11:29;;;;;;;;;;;;;;;;;;4928639;28;8470;-85
2023/06/25 04:13:55;;;;;;;;;;;;;;;;;;4927063;29;8548;-86
2023/06/25 04:16:21;;;;;;;;;;;;;;;;;;4926800;29;8407;-86
2023/06/25 04:18:46;;;;;;;;;;;;;;;;;;4927837;28;7100;-86
2023/06/25 04:21:12;;;;;;;;;;;;;;;;;;4928812;29;8508;-84
2023/06/25 04:23:38;;;;;;;;;;;;;;;;;;4928816;28;8407;-87
2023/06/25 04:26:04;;;;;;;;;;;;;;;;;;4929091;29;8579;-86
2023/06/25 04:28:30;;;;;;;;;;;;;;;;;;4928675;29;8573;-87
2023/06/25 04:30:56;;;;;;;;;;;;;;;;;;4929136;29;9009;-84
2023/06/25 04:33:21;;;;;;;;;;;;;;;;;;4930948;29;7222;-85
2023/06/25 04:35:47;;;;;;;;;;;;;;;;;;4928877;29;7244;-86
2023/06/25 04:38:13;;;;;;;;;;;;;;;;;;4928531;29;8494;-86
2023/06/25 04:40:39;;;;;;;;;;;;;;;;;;4947918;29;8886;-86
2023/06/25 04:43:04;;;;;;;;;;;;;;;;;;4929236;29;8812;-85
2023/06/25 04:45:30;;;;;;;;;;;;;;;;;;4927214;29;8784;-85
2023/06/25 04:47:55;;;;;;;;;;;;;;;;;;4928529;29;8571;-85
2023/06/25 04:50:21;;;;;;;;;;;;;;;;;;4927370;29;7300;-88
2023/06/25 04:52:47;;;;;;;;;;;;;;;;;;4926627;29;8455;-87
2023/06/25 04:55:12;;;;;;;;;;;;;;;;;;4926726;29;8814;-87
2023/06/25 04:57:38;;;;;;;;;;;;;;;;;;4931535;29;8595;-86
2023/06/25 05:00:05;;;;;;;;;;;;;;;;;;4927706;28;8575;-89
2023/06/25 05:02:30;;;;;;;;;;;;;;;;;;4925492;29;7167;-84
2023/06/25 05:04:56;;;;;;;;;;;;;;;;;;4922147;29;8502;-85
2023/06/25 05:07:22;;;;;;;;;;;;;;;;;;4922018;29;8526;-85
2023/06/25 05:09:47;;;;;;;;;;;;;;;;;;4921838;29;8402;-86
2023/06/25 05:12:13;;;;;;;;;;;;;;;;;;4921933;29;8489;-84
2023/06/25 05:14:38;;;;;;;;;;;;;;;;;;4921886;29;9060;-85
2023/06/25 05:17:04;;;;;;;;;;;;;;;;;;4930395;28;9183;-86
2023/06/25 05:19:30;;;;;;;;;;;;;;;;;;4938799;28;8553;-86
2023/06/25 05:21:55;;;;;;;;;;;;;;;;;;4939900;28;8496;-87
2023/06/25 05:24:21;;;;;;;;;;;;;;;;;;4938969;28;8370;-87
2023/06/25 05:26:46;;;;;;;;;;;;;;;;;;4939112;28;8952;-84
2023/06/25 05:29:12;;;;;;;;;;;;;;;;;;4940583;28;7131;-86
2023/06/25 05:31:37;;;;;;;;;;;;;;;;;;4941163;28;7684;-89
2023/06/25 05:34:03;;;;;;;;;;;;;;;;;;4940696;28;7115;-86
2023/06/25 05:36:29;;;;;;;;;;;;;;;;;;4940023;28;8541;-86
2023/06/25 05:38:54;;;;;;;;;;;;;;;;;;4937428;28;8487;-85
2023/06/25 05:41:20;;;;;;;;;;;;;;;;;;4953438;28;6966;-88
2023/06/25 05:43:45;;;;;;;;;;;;;;;;;;4939970;28;7006;-89
2023/06/25 05:46:13;;;;;;;;;;;;;;;;;;4939514;28;8806;-89
2023/06/25 05:48:39;;;;;;;;;;;;;;;;;;4935827;28;8417;-89
2023/06/25 05:51:06;;;;;;;;;;;;;;;;;;4931218;28;7149;-90
2023/06/25 05:53:41;;;;;;;;;;;;;;;;;;4947504;28;8600;-81
2023/06/25 05:56:07;;;;;;;;;;;;;;;;;;4933814;28;7012;-81
2023/06/25 05:58:36;;;;;;;;;;;;;;;;;;4952534;28;8472;-87
2023/06/25 06:01:05;;;;;;;;;;;;;;;;;;4956493;28;8536;-87
2023/06/25 06:03:31;;;;;;;;;;;;;;;;;;4953422;28;8584;-81
2023/06/25 06:05:57;;;;;;;;;;;;;;;;;;4953492;28;8805;-81
2023/06/25 06:08:22;;;;;;;;;;;;;;;;;;4939429;28;9541;-82
2023/06/25 06:10:48;;;;;;;;;;;;;;;;;;4936643;28;8538;-82
2023/06/25 06:13:15;;;;;;;;;;;;;;;;;;4936128;28;8919;-81
2023/06/25 06:15:40;;;;;;;;;;;;;;;;;;4945151;28;8555;-84
2023/06/25 06:18:06;;;;;;;;;;;;;;;;;;4939274;28;8418;-83
2023/06/25 06:20:32;;;;;;;;;;;;;;;;;;4955560;28;8827;-86
2023/06/25 06:23:01;;;;;;;;;;;;;;;;;;4939585;28;7272;-85
2023/06/25 06:25:27;;;;;;;;;;;;;;;;;;4958779;28;8948;-85
2023/06/25 06:27:54;;;;;;;;;;;;;;;;;;4957345;28;8502;-87
2023/06/25 06:30:23;;;;;;;;;;;;;;;;;;4953719;28;8928;-86
2023/06/25 06:32:48;;;;;;;;;;;;;;;;;;4937478;28;8545;-85
2023/06/25 06:35:14;;;;;;;;;;;;;;;;;;4937774;28;8731;-85
2023/06/25 06:37:39;;;;;;;;;;;;;;;;;;4937616;28;8677;-86
2023/06/25 06:40:05;;;;;;;;;;;;;;;;;;4953917;28;8811;-85
2023/06/25 06:42:34;;;;;;;;;;;;;;;;;;4954740;28;8531;-84
2023/06/25 06:45:00;;;;;;;;;;;;;;;;;;4955103;28;7209;-85
2023/06/25 06:47:25;;;;;;;;;;;;;;;;;;4955137;28;8913;-83
2023/06/25 06:49:51;;;;;;;;;;;;;;;;;;4954806;28;9038;-85
2023/06/25 06:52:16;;;;;;;;;;;;;;;;;;4955061;28;8832;-84
2023/06/25 06:54:42;;;;;;;;;;;;;;;;;;4941318;28;8842;-83
2023/06/25 06:57:10;;;;;;;;;;;;;;;;;;4943924;28;8417;-88
2023/06/25 06:59:44;;;;;;;;;;;;;;;;;;4939421;28;7141;-89
2023/06/25 07:02:11;;;;;;;;;;;;;;;;;;4945500;28;8665;-87
2023/06/25 07:04:37;;;;;;;;;;;;;;;;;;4938900;28;9275;-87
2023/06/25 07:07:03;;;;;;;;;;;;;;;;;;4938517;28;8840;-84
2023/06/25 07:09:28;;;;;;;;;;;;;;;;;;4938642;28;8688;-87
2023/06/25 07:11:54;;;;;;;;;;;;;;;;;;4938959;28;7164;-83
2023/06/25 07:14:19;;;;;;;;;;;;;;;;;;4956243;28;8605;-89
2023/06/25 07:16:45;;;;;;;;;;;;;;;;;;4958833;28;7307;-88
2023/06/25 07:19:11;;;;;;;;;;;;;;;;;;4940963;28;9354;-88
2023/06/25 07:21:37;;;;;;;;;;;;;;;;;;4942068;28;7131;-86
2023/06/25 07:24:03;;;;;;;;;;;;;;;;;;4936544;28;7240;-85
2023/06/25 07:26:28;;;;;;;;;;;;;;;;;;4936780;28;8963;-85
2023/06/25 07:28:54;;;;;;;;;;;;;;;;;;4936853;28;8536;-86
2023/06/25 07:31:19;;;;;;;;;;;;;;;;;;4938590;28;7264;-86
2023/06/25 07:33:45;;;;;;;;;;;;;;;;;;4938137;28;8556;-85
2023/06/25 07:36:11;;;;;;;;;;;;;;;;;;4947017;28;8499;-84
2023/06/25 07:38:36;;;;;;;;;;;;;;;;;;4954572;28;8852;-84
2023/06/25 07:41:02;;;;;;;;;;;;;;;;;;4938225;28;8760;-87
2023/06/25 07:43:27;;;;;;;;;;;;;;;;;;4938338;28;8780;-84
2023/06/25 07:45:53;;;;;;;;;;;;;;;;;;4938139;28;9080;-88
2023/06/25 07:48:18;;;;;;;;;;;;;;;;;;4953938;28;9550;-86
2023/06/25 07:50:44;;;;;;;;;;;;;;;;;;4953856;28;8561;-85
2023/06/25 07:53:10;;;;;;;;;;;;;;;;;;4938160;28;8495;-84
2023/06/25 07:55:40;;;;;;;;;;;;;;;;;;4954220;28;8684;-85
2023/06/25 07:58:06;;;;;;;;;;;;;;;;;;4945144;28;8587;-85
2023/06/25 08:00:31;;;;;;;;;;;;;;;;;;4939362;28;8687;-90
2023/06/25 08:02:57;;;;;;;;;;;;;;;;;;4938104;28;8853;-88
2023/06/25 08:05:22;;;;;;;;;;;;;;;;;;4937607;28;7506;-86
2023/06/25 08:07:48;;;;;;;;;;;;;;;;;;4939580;28;8521;-83
2023/06/25 08:10:13;;;;;;;;;;;;;;;;;;4955238;28;9216;-87
2023/06/25 08:12:39;;;;;;;;;;;;;;;;;;4953232;28;8508;-85
2023/06/25 08:15:05;;;;;;;;;;;;;;;;;;4939720;28;8915;-89
2023/06/25 08:17:31;;;;;;;;;;;;;;;;;;4958088;28;7389;-89
2023/06/25 08:19:56;;;;;;;;;;;;;;;;;;4938004;28;8805;-88
2023/06/25 08:22:21;;;;;;;;;;;;;;;;;;4941237;28;8879;-86
2023/06/25 08:24:47;;;;;;;;;;;;;;;;;;4937214;28;8531;-87
2023/06/25 08:27:12;;;;;;;;;;;;;;;;;;4938127;28;8424;-84
2023/06/25 08:29:40;;;;;;;;;;;;;;;;;;4953480;29;8494;-85
2023/06/25 08:32:06;;;;;;;;;;;;;;;;;;4953665;29;8571;-88
2023/06/25 08:34:32;;;;;;;;;;;;;;;;;;4947272;28;7358;-84
2023/06/25 08:36:58;;;;;;;;;;;;;;;;;;4941071;28;8685;-84
2023/06/25 08:39:23;;;;;;;;;;;;;;;;;;4941985;28;8774;-83
2023/06/25 08:41:49;;;;;;;;;;;;;;;;;;4941762;28;8568;-84
2023/06/25 08:44:15;;;;;;;;;;;;;;;;;;4957261;28;7089;-85
2023/06/25 08:46:47;;;;;;;;;;;;;;;;;;4957672;28;7249;-85
2023/06/25 08:49:15;;;;;;;;;;;;;;;;;;4957431;28;8520;-84
2023/06/25 08:51:40;;;;;;;;;;;;;;;;;;4957215;28;8519;-84
2023/06/25 08:54:07;;;;;;;;;;;;;;;;;;4957146;28;8747;-84
2023/06/25 08:56:33;;;;;;;;;;;;;;;;;;4957105;28;8978;-85
2023/06/25 08:58:59;;;;;;;;;;;;;;;;;;4957072;28;8616;-84
2023/06/25 09:01:25;;;;;;;;;;;;;;;;;;4941199;28;8663;-84
2023/06/25 09:03:50;;;;;;;;;;;;;;;;;;4956970;28;9596;-85
2023/06/25 09:06:16;;;;;;;;;;;;;;;;;;4941010;28;8526;-85
2023/06/25 09:08:42;;;;;;;;;;;;;;;;;;4957102;28;7370;-84
2023/06/25 09:11:09;;;;;;;;;;;;;;;;;;4955736;28;8391;-84
2023/06/25 09:13:36;;;;;;;;;;;;;;;;;;4956907;28;8639;-83
2023/06/25 09:16:04;;;;;;;;;;;;;;;;;;4945405;28;7730;-84
2023/06/25 09:18:30;;;;;;;;;;;;;;;;;;4940729;28;8546;-84
2023/06/25 09:21:00;;;;;;;;;;;;;;;;;;4940859;28;8557;-84
2023/06/25 09:23:25;;;;;;;;;;;;;;;;;;4956852;28;8876;-83
2023/06/25 09:25:51;;;;;;;;;;;;;;;;;;4940068;28;8813;-87
2023/06/25 09:28:18;;;;;;;;;;;;;;;;;;4957195;28;8996;-87
2023/06/25 09:30:44;;;;;;;;;;;;;;;;;;4933015;28;8607;-84
2023/06/25 09:33:10;;;;;;;;;;;;;;;;;;4932848;28;8588;-87
2023/06/25 09:35:36;;;;;;;;;;;;;;;;;;4940335;28;7196;-87
2023/06/25 09:38:02;;;;;;;;;;;;;;;;;;4940487;28;8752;-85
2023/06/25 09:40:29;;;;;;;;;;;;;;;;;;4936746;29;8977;-87
2023/06/25 09:42:55;;;;;;;;;;;;;;;;;;4937816;29;8514;-85
2023/06/25 09:45:22;;;;;;;;;;;;;;;;;;4953863;28;8536;-85
2023/06/25 09:47:49;;;;;;;;;;;;;;;;;;4954234;28;8710;-86
2023/06/25 09:50:18;;;;;;;;;;;;;;;;;;4937406;28;8549;-86
2023/06/25 09:52:47;;;;;;;;;;;;;;;;;;4936294;29;8698;-85
2023/06/25 09:55:15;;;;;;;;;;;;;;;;;;4936943;29;8556;-86
2023/06/25 09:57:42;;;;;;;;;;;;;;;;;;4936206;29;8825;-86
2023/06/25 10:00:09;;;;;;;;;;;;;;;;;;4939400;28;8572;-85
2023/06/25 10:02:35;;;;;;;;;;;;;;;;;;4939694;28;8956;-85
2023/06/25 10:05:00;;;;;;;;;;;;;;;;;;4939862;28;9377;-85
2023/06/25 10:07:26;;;;;;;;;;;;;;;;;;4938480;28;8519;-85
2023/06/25 10:09:55;;;;;;;;;;;;;;;;;;4937586;28;8423;-86
2023/06/25 10:12:21;;;;;;;;;;;;;;;;;;4934928;28;8554;-85
2023/06/25 10:14:47;;;;;;;;;;;;;;;;;;4935216;28;8530;-84
2023/06/25 10:17:13;;;;;;;;;;;;;;;;;;4936721;28;8991;-85
2023/06/25 10:19:38;;;;;;;;;;;;;;;;;;4936642;28;8496;-86
2023/06/25 10:22:16;;;;;;;;;;;;;;;;;;4921534;29;8538;-85
2023/06/25 10:24:46;;;;;;;;;;;;;;;;;;4928460;28;8580;-85
2023/06/25 10:27:39;;;;;;;;;;;;;;;;;;4938943;28;8797;-84
2023/06/25 10:30:11;;;;;;;;;;;;;;;;;;4935860;28;7252;-85
2023/06/25 10:32:41;;;;;;;;;;;;;;;;;;4938740;28;8685;-86
2023/06/25 10:35:06;;;;;;;;;;;;;;;;;;4938951;28;8692;-86
2023/06/25 10:37:33;;;;;;;;;;;;;;;;;;4942541;28;8939;-86
2023/06/25 10:40:04;;;;;;;;;;;;;;;;;;4939468;28;8630;-85
2023/06/25 10:42:31;;;;;;;;;;;;;;;;;;4938569;28;8595;-85
2023/06/25 10:44:57;;;;;;;;;;;;;;;;;;4939136;28;8869;-85
2023/06/25 10:47:23;;;;;;;;;;;;;;;;;;4954643;28;8766;-85
2023/06/25 10:49:48;;;;;;;;;;;;;;;;;;4942869;28;8623;-86
2023/06/25 10:52:14;;;;;;;;;;;;;;;;;;4950591;28;7148;-86
2023/06/25 10:54:39;;;;;;;;;;;;;;;;;;4948063;28;8829;-85
2023/06/25 10:57:09;;;;;;;;;;;;;;;;;;4950887;28;8580;-87
2023/06/25 10:59:35;;;;;;;;;;;;;;;;;;4953491;28;8623;-85
2023/06/25 11:02:13;;;;;;;;;;;;;;;;;;4929370;28;8542;-85
2023/06/25 11:04:39;;;;;;;;;;;;;;;;;;4919545;29;9228;-86
2023/06/25 11:07:05;;;;;;;;;;;;;;;;;;4919356;29;8651;-85
2023/06/25 11:09:30;;;;;;;;;;;;;;;;;;4919345;29;7172;-86
2023/06/25 11:11:56;;;;;;;;;;;;;;;;;;4931867;28;8523;-86
2023/06/25 11:14:23;;;;;;;;;;;;;;;;;;4938684;28;8511;-85
2023/06/25 11:16:49;;;;;;;;;;;;;;;;;;4938473;28;7314;-86
2023/06/25 11:19:14;;;;;;;;;;;;;;;;;;4938455;28;9339;-87
2023/06/25 11:21:40;;;;;;;;;;;;;;;;;;4938352;28;8820;-85
2023/06/25 11:24:08;;;;;;;;;;;;;;;;;;4938393;28;7222;-85
2023/06/25 11:26:38;;;;;;;;;;;;;;;;;;4937437;28;8708;-90
2023/06/25 11:29:11;;;;;;;;;;;;;;;;;;4956044;28;8468;-83
2023/06/25 11:31:41;;;;;;;;;;;;;;;;;;4938298;28;8884;-85
2023/06/25 11:34:09;;;;;;;;;;;;;;;;;;4919542;29;9450;-85
2023/06/25 11:36:35;;;;;;;;;;;;;;;;;;4919244;29;7621;-87
2023/06/25 11:39:00;;;;;;;;;;;;;;;;;;4922913;28;8528;-87
2023/06/25 11:41:27;;;;;;;;;;;;;;;;;;4935902;28;8913;-87
2023/06/25 11:43:53;;;;;;;;;;;;;;;;;;4937880;28;8584;-88
2023/06/25 11:49:08;;;;;;;;;;;;;;;;;;4955747;28;7137;-87
2023/06/25 11:51:33;;;;;;;;;;;;;;;;;;4943681;28;8567;-88
2023/06/25 11:53:59;;;;;;;;;;;;;;;;;;4938167;28;8495;-87
2023/06/25 11:56:24;;;;;;;;;;;;;;;;;;4937879;28;8515;-87
2023/06/25 11:58:50;;;;;;;;;;;;;;;;;;4937812;28;7202;-86
2023/06/25 12:01:15;;;;;;;;;;;;;;;;;;4931638;29;8516;-88
2023/06/25 12:03:41;;;;;;;;;;;;;;;;;;4920923;29;8560;-89
2023/06/25 12:06:07;;;;;;;;;;;;;;;;;;4915553;29;7435;-87
2023/06/25 12:08:32;;;;;;;;;;;;;;;;;;4914264;29;8373;-87
2023/06/25 12:10:58;;;;;;;;;;;;;;;;;;4917204;29;7264;-87
2023/06/25 12:13:23;;;;;;;;;;;;;;;;;;4933239;29;8513;-88
2023/06/25 12:15:52;;;;;;;;;;;;;;;;;;4933458;29;8822;-88
2023/06/25 12:18:17;;;;;;;;;;;;;;;;;;4933274;29;8565;-88
2023/06/25 12:20:43;;;;;;;;;;;;;;;;;;4933604;29;8642;-86
2023/06/25 12:23:15;;;;;;;;;;;;;;;;;;4934468;29;8631;-83
2023/06/25 12:25:40;;;;;;;;;;;;;;;;;;4935565;29;9789;-88
2023/06/25 12:28:06;;;;;;;;;;;;;;;;;;4933143;29;8595;-87
2023/06/25 12:30:31;;;;;;;;;;;;;;;;;;4932760;29;8536;-87
2023/06/25 12:32:57;;;;;;;;;;;;;;;;;;4933458;29;8542;-90
2023/06/25 12:35:23;;;;;;;;;;;;;;;;;;4917553;29;8773;-87
2023/06/25 12:37:48;;;;;;;;;;;;;;;;;;4916593;29;8536;-87
2023/06/25 12:40:14;;;;;;;;;;;;;;;;;;4932267;29;9321;-86
2023/06/25 12:42:40;;;;;;;;;;;;;;;;;;4935453;29;8535;-86
2023/06/25 12:45:06;;;;;;;;;;;;;;;;;;4937494;29;8994;-89
2023/06/25 12:47:32;;;;;;;;;;;;;;;;;;4937566;29;7172;-88
2023/06/25 12:49:57;;;;;;;;;;;;;;;;;;4936748;29;7480;-87
2023/06/25 12:52:23;;;;;;;;;;;;;;;;;;4937759;29;8998;-87
2023/06/25 12:54:48;;;;;;;;;;;;;;;;;;4937396;29;8478;-88
2023/06/25 12:57:14;;;;;;;;;;;;;;;;;;4937112;29;8782;-85
2023/06/25 12:59:39;;;;;;;;;;;;;;;;;;4937136;29;7304;-85
2023/06/25 13:02:05;;;;;;;;;;;;;;;;;;4933499;29;7346;-85
2023/06/25 13:04:31;;;;;;;;;;;;;;;;;;4934316;29;8959;-85
2023/06/25 13:06:57;;;;;;;;;;;;;;;;;;4933814;29;8741;-86
2023/06/25 13:09:23;;;;;;;;;;;;;;;;;;4933822;29;8461;-89
2023/06/25 13:11:49;;;;;;;;;;;;;;;;;;4942355;29;9018;-85
2023/06/25 13:14:14;;;;;;;;;;;;;;;;;;4936990;29;8901;-88
2023/06/25 13:16:40;;;;;;;;;;;;;;;;;;4937300;29;7280;-85
2023/06/25 13:19:06;;;;;;;;;;;;;;;;;;4937144;29;8764;-89
2023/06/25 13:21:31;;;;;;;;;;;;;;;;;;4937664;28;8752;-86
2023/06/25 13:23:57;;;;;;;;;;;;;;;;;;4941097;28;9460;-89
2023/06/25 13:26:23;;;;;;;;;;;;;;;;;;4940729;28;8490;-86
2023/06/25 13:28:49;;;;;;;;;;;;;;;;;;4940487;28;8835;-86
2023/06/25 13:31:14;;;;;;;;;;;;;;;;;;4940302;28;8538;-86
2023/06/25 13:33:40;;;;;;;;;;;;;;;;;;4940385;28;8540;-86
2023/06/25 13:36:06;;;;;;;;;;;;;;;;;;4940301;28;8733;-86
2023/06/25 13:38:32;;;;;;;;;;;;;;;;;;4939060;28;8960;-87
2023/06/25 13:40:57;;;;;;;;;;;;;;;;;;4937353;28;7275;-86
2023/06/25 13:43:23;;;;;;;;;;;;;;;;;;4921321;29;8546;-87
2023/06/25 13:45:48;;;;;;;;;;;;;;;;;;4921100;29;8594;-88
2023/06/25 13:48:14;;;;;;;;;;;;;;;;;;4921485;29;8515;-87
2023/06/25 13:50:39;;;;;;;;;;;;;;;;;;4921008;29;8612;-87
2023/06/25 13:53:05;;;;;;;;;;;;;;;;;;4937563;28;9842;-87
2023/06/25 13:55:30;;;;;;;;;;;;;;;;;;4940074;28;8568;-87
2023/06/25 13:57:56;;;;;;;;;;;;;;;;;;4935599;29;8973;-86
2023/06/25 14:00:21;;;;;;;;;;;;;;;;;;4920885;29;8764;-86
2023/06/25 14:02:47;;;;;;;;;;;;;;;;;;4935088;28;7320;-86
2023/06/25 14:05:12;;;;;;;;;;;;;;;;;;4939338;28;8479;-88
2023/06/25 14:07:38;;;;;;;;;;;;;;;;;;4939258;28;8501;-87
2023/06/25 14:10:04;;;;;;;;;;;;;;;;;;4934737;29;8574;-88
2023/06/25 14:12:30;;;;;;;;;;;;;;;;;;4932446;28;8582;-87
2023/06/25 14:14:55;;;;;;;;;;;;;;;;;;4939190;28;8626;-87
2023/06/25 14:17:21;;;;;;;;;;;;;;;;;;4929774;29;8513;-88
2023/06/25 14:19:46;;;;;;;;;;;;;;;;;;4921320;29;8848;-87
2023/06/25 14:22:12;;;;;;;;;;;;;;;;;;4920658;29;8789;-87
2023/06/25 14:24:37;;;;;;;;;;;;;;;;;;4920697;29;8533;-88
2023/06/25 14:27:03;;;;;;;;;;;;;;;;;;4920632;29;8503;-88
2023/06/25 14:29:28;;;;;;;;;;;;;;;;;;4920511;29;8761;-88
2023/06/25 14:31:54;;;;;;;;;;;;;;;;;;4921042;29;8788;-87
2023/06/25 14:34:26;;;;;;;;;;;;;;;;;;4943690;28;7249;-84
2023/06/25 14:36:52;;;;;;;;;;;;;;;;;;4965341;28;7551;-86
2023/06/25 14:39:17;;;;;;;;;;;;;;;;;;4937561;28;8445;-87
2023/06/25 14:41:43;;;;;;;;;;;;;;;;;;4936664;28;8545;-87
2023/06/25 14:44:08;;;;;;;;;;;;;;;;;;4935708;28;8713;-87
2023/06/25 14:46:34;;;;;;;;;;;;;;;;;;4934598;28;8802;-86
2023/06/25 14:48:59;;;;;;;;;;;;;;;;;;4953125;28;8546;-86
2023/06/25 14:51:25;;;;;;;;;;;;;;;;;;4934789;28;8844;-86
2023/06/25 14:53:50;;;;;;;;;;;;;;;;;;4936176;28;8695;-86
2023/06/25 14:56:16;;;;;;;;;;;;;;;;;;4937718;28;8578;-86
2023/06/25 14:58:41;;;;;;;;;;;;;;;;;;4938594;28;7376;-86
2023/06/25 15:01:07;;;;;;;;;;;;;;;;;;4938574;28;8600;-86
2023/06/25 15:03:32;;;;;;;;;;;;;;;;;;4935397;28;7155;-86
2023/06/25 15:05:58;;;;;;;;;;;;;;;;;;4938950;28;8513;-86
2023/06/25 15:08:23;;;;;;;;;;;;;;;;;;4938844;28;8453;-86
2023/06/25 15:10:49;;;;;;;;;;;;;;;;;;4934778;28;7321;-86
2023/06/25 15:13:15;;;;;;;;;;;;;;;;;;4938257;28;9039;-86
2023/06/25 15:15:41;;;;;;;;;;;;;;;;;;4934376;28;8919;-86
2023/06/25 15:18:07;;;;;;;;;;;;;;;;;;4938522;28;9495;-87
2023/06/25 15:20:32;;;;;;;;;;;;;;;;;;4937177;28;8691;-86
2023/06/25 15:22:58;;;;;;;;;;;;;;;;;;4951999;28;7257;-89
2023/06/25 15:25:23;;;;;;;;;;;;;;;;;;4923941;28;8587;-88
2023/06/25 15:27:49;;;;;;;;;;;;;;;;;;4954141;28;7156;-87
2023/06/25 15:30:15;;;;;;;;;;;;;;;;;;4937553;28;8862;-88
2023/06/25 15:32:41;;;;;;;;;;;;;;;;;;4933747;28;7252;-87
2023/06/25 15:35:08;;;;;;;;;;;;;;;;;;4948009;28;7585;-88
2023/06/25 15:37:33;;;;;;;;;;;;;;;;;;4930992;28;8608;-88
2023/06/25 15:39:59;;;;;;;;;;;;;;;;;;4935337;28;8835;-88
2023/06/25 15:42:25;;;;;;;;;;;;;;;;;;4931776;28;7251;-89
2023/06/25 15:44:51;;;;;;;;;;;;;;;;;;4935410;28;7044;-88
2023/06/25 15:47:17;;;;;;;;;;;;;;;;;;4937146;28;8839;-88
2023/06/25 15:49:45;;;;;;;;;;;;;;;;;;4937723;28;8550;-89
2023/06/25 15:52:11;;;;;;;;;;;;;;;;;;4936316;28;9139;-90
2023/06/25 15:54:36;;;;;;;;;;;;;;;;;;4950014;28;8820;-89
2023/06/25 15:57:02;;;;;;;;;;;;;;;;;;4937494;28;8708;-88
2023/06/25 15:59:28;;;;;;;;;;;;;;;;;;4932629;28;8537;-89
2023/06/25 16:01:53;;;;;;;;;;;;;;;;;;4934936;28;8627;-90
2023/06/25 16:04:18;;;;;;;;;;;;;;;;;;4933151;28;8543;-89
2023/06/25 16:06:44;;;;;;;;;;;;;;;;;;4937031;28;8592;-89
2023/06/25 16:09:09;;;;;;;;;;;;;;;;;;4936264;28;8511;-89
2023/06/25 16:11:35;;;;;;;;;;;;;;;;;;4931827;28;8603;-88
2023/06/25 16:14:01;;;;;;;;;;;;;;;;;;4951866;28;9074;-87
2023/06/25 16:16:26;;;;;;;;;;;;;;;;;;4937494;28;8514;-86
2023/06/25 16:18:52;;;;;;;;;;;;;;;;;;4937395;28;8534;-89
2023/06/25 16:21:18;;;;;;;;;;;;;;;;;;4935732;28;8754;-87
2023/06/25 16:23:43;;;;;;;;;;;;;;;;;;4936275;28;7295;-87
2023/06/25 16:26:09;;;;;;;;;;;;;;;;;;4937907;28;8767;-87
2023/06/25 16:28:38;;;;;;;;;;;;;;;;;;4935713;28;8508;-86
2023/06/25 16:31:03;;;;;;;;;;;;;;;;;;4935768;29;8594;-87
2023/06/25 16:33:29;;;;;;;;;;;;;;;;;;4953505;29;7246;-86
2023/06/25 16:35:54;;;;;;;;;;;;;;;;;;4937432;29;8437;-86
2023/06/25 16:38:20;;;;;;;;;;;;;;;;;;4937889;29;8595;-89
2023/06/25 16:40:45;;;;;;;;;;;;;;;;;;4938648;29;8707;-87
2023/06/25 16:43:11;;;;;;;;;;;;;;;;;;4940987;29;7110;-86
2023/06/25 16:45:38;;;;;;;;;;;;;;;;;;4942422;29;9087;-89
2023/06/25 16:48:04;;;;;;;;;;;;;;;;;;4940034;29;7445;-87
2023/06/25 16:50:30;;;;;;;;;;;;;;;;;;4938064;29;8777;-87
2023/06/25 16:52:55;;;;;;;;;;;;;;;;;;4939308;29;8497;-89
2023/06/25 16:55:21;;;;;;;;;;;;;;;;;;4938844;29;8606;-88
2023/06/25 16:57:46;;;;;;;;;;;;;;;;;;4941250;28;8740;-87